createdAt,value
2023-02-25T00:02:02.602Z,100483.16
2023-02-25T00:04:32.500Z,100479.75
2023-02-25T00:07:02.455Z,100477.03
2023-02-25T00:09:31.375Z,100479.56
2023-02-25T00:11:59.770Z,100476.94
2023-02-25T00:14:28.508Z,100476.88
2023-02-25T00:16:57.552Z,100471.69
2023-02-25T00:19:27.024Z,100476.03
2023-02-25T00:21:55.275Z,100490.72
2023-02-25T00:24:25.050Z,100484.63
2023-02-25T00:26:53.371Z,100485.47
2023-02-25T00:29:22.218Z,100491.44
2023-02-25T00:31:50.707Z,100487.03
2023-02-25T00:34:19.146Z,100482.66
2023-02-25T00:36:47.717Z,100498.22
2023-02-25T00:39:16.049Z,100495.63
2023-02-25T00:41:45.843Z,100498.28
2023-02-25T00:44:14.149Z,100491.34
2023-02-25T00:46:42.473Z,100510.41
2023-02-25T00:49:13.366Z,100513.00
2023-02-25T00:51:45.105Z,100510.41
2023-02-25T00:54:13.453Z,100519.03
2023-02-25T00:56:41.723Z,100515.59
2023-02-25T00:59:11.389Z,100513.00
2023-02-25T01:01:40.235Z,100522.50
2023-02-25T01:04:09.068Z,100510.41
2023-02-25T01:06:38.709Z,100512.16
2023-02-25T01:09:14.056Z,100506.94
2023-02-25T01:11:45.776Z,100518.13
2023-02-25T01:14:18.751Z,100511.22
2023-02-25T01:16:48.346Z,100517.19
2023-02-25T01:19:20.086Z,100515.31
2023-02-25T01:21:51.820Z,100519.41
2023-02-25T01:24:23.606Z,100518.47
2023-02-25T01:26:54.966Z,100524.50
2023-02-25T01:29:27.276Z,100516.72
2023-02-25T01:31:57.347Z,100511.59
2023-02-25T01:34:26.598Z,100508.94
2023-02-25T01:36:54.976Z,100514.13
2023-02-25T01:39:26.548Z,100521.97
2023-02-25T01:41:57.131Z,100525.47
2023-02-25T01:44:31.843Z,100517.78
2023-02-25T01:47:01.531Z,100516.00
2023-02-25T01:49:36.737Z,100520.38
2023-02-25T01:52:11.298Z,100522.97
2023-02-25T01:54:41.136Z,100526.38
2023-02-25T01:57:13.140Z,100522.84
2023-02-25T01:59:44.259Z,100532.44
2023-02-25T02:02:15.869Z,100517.78
2023-02-25T02:04:50.077Z,100516.13
2023-02-25T02:07:18.777Z,100515.28
2023-02-25T02:09:56.623Z,100520.50
2023-02-25T02:12:27.538Z,100522.38
2023-02-25T02:15:01.316Z,100518.97
2023-02-25T02:17:36.377Z,100522.50
2023-02-25T02:20:14.188Z,100536.44
2023-02-25T02:22:54.799Z,100537.34
2023-02-25T02:25:53.069Z,100545.91
2023-02-25T02:29:17.831Z,100550.97
2023-02-25T02:32:04.701Z,100549.03
2023-02-25T02:34:43.115Z,100551.53
2023-02-25T02:37:28.480Z,100545.41
2023-02-25T02:40:14.156Z,100536.72
2023-02-25T02:42:46.778Z,100540.09
2023-02-25T02:45:20.872Z,100540.94
2023-02-25T02:47:55.069Z,100535.75
2023-02-25T02:50:36.464Z,100535.81
2023-02-25T02:53:09.911Z,100536.72
2023-02-25T02:55:41.753Z,100542.81
2023-02-25T02:58:16.296Z,100545.47
2023-02-25T03:00:49.723Z,100549.84
2023-02-25T03:03:24.353Z,100556.03
2023-02-25T03:05:55.295Z,100563.00
2023-02-25T03:08:29.672Z,100552.56
2023-02-25T03:10:58.111Z,100553.34
2023-02-25T03:13:26.453Z,100549.78
2023-02-25T03:15:56.045Z,100539.31
2023-02-25T03:18:32.827Z,100543.53
2023-02-25T03:21:05.423Z,100546.97
2023-02-25T03:23:39.408Z,100553.84
2023-02-25T03:26:18.523Z,100565.06
2023-02-25T03:28:47.535Z,100558.97
2023-02-25T03:31:32.465Z,100563.34
2023-02-25T03:34:08.149Z,100565.03
2023-02-25T03:36:41.486Z,100572.84
2023-02-25T03:39:15.276Z,100567.66
2023-02-25T03:41:48.025Z,100582.47
2023-02-25T03:44:22.349Z,100575.50
2023-02-25T03:46:51.115Z,100592.81
2023-02-25T03:49:28.762Z,100595.44
2023-02-25T03:51:58.817Z,100605.00
2023-02-25T03:54:27.396Z,100610.25
2023-02-25T03:56:57.019Z,100610.25
2023-02-25T03:59:28.253Z,100616.34
2023-02-25T04:01:58.581Z,100612.84
2023-02-25T04:04:28.262Z,100627.56
2023-02-25T04:06:56.595Z,100630.22
2023-02-25T04:09:24.841Z,100632.81
2023-02-25T04:11:57.016Z,100625.81
2023-02-25T04:14:25.993Z,100637.03
2023-02-25T04:16:54.381Z,100633.47
2023-02-25T04:19:23.868Z,100637.69
2023-02-25T04:21:53.605Z,100628.06
2023-02-25T04:24:21.873Z,100634.88
2023-02-25T04:26:50.295Z,100639.16
2023-02-25T04:29:18.562Z,100658.13
2023-02-25T04:31:47.084Z,100654.59
2023-02-25T04:34:15.443Z,100655.41
2023-02-25T04:36:44.399Z,100664.00
2023-02-25T04:39:16.155Z,100660.50
2023-02-25T04:41:45.316Z,100656.06
2023-02-25T04:44:13.599Z,100660.31
2023-02-25T04:46:43.861Z,100650.72
2023-02-25T04:49:12.584Z,100657.56
2023-02-25T04:51:41.236Z,100660.13
2023-02-25T04:54:09.690Z,100662.69
2023-02-25T04:56:40.668Z,100659.19
2023-02-25T04:59:11.399Z,100665.28
2023-02-25T05:01:40.233Z,100665.25
2023-02-25T05:04:09.007Z,100666.97
2023-02-25T05:06:37.338Z,100669.63
2023-02-25T05:09:09.325Z,100668.81
2023-02-25T05:11:39.891Z,100670.59
2023-02-25T05:14:08.217Z,100664.56
2023-02-25T05:16:36.613Z,100670.66
2023-02-25T05:19:05.085Z,100666.31
2023-02-25T05:21:34.974Z,100675.03
2023-02-25T05:24:04.049Z,100670.72
2023-02-25T05:26:32.465Z,100670.66
2023-02-25T05:29:02.211Z,100677.69
2023-02-25T05:31:30.691Z,100681.19
2023-02-25T05:33:58.973Z,100685.53
2023-02-25T05:36:28.441Z,100695.94
2023-02-25T05:39:02.650Z,100698.59
2023-02-25T05:41:31.994Z,100700.34
2023-02-25T05:44:01.692Z,100708.16
2023-02-25T05:46:30.345Z,100701.25
2023-02-25T05:48:58.688Z,100710.81
2023-02-25T05:51:26.945Z,100712.59
2023-02-25T05:53:55.470Z,100719.56
2023-02-25T05:56:29.506Z,100719.63
2023-02-25T05:59:01.494Z,100723.22
2023-02-25T06:01:31.538Z,100719.75
2023-02-25T06:04:00.293Z,100722.28
2023-02-25T06:06:30.991Z,100726.72
2023-02-25T06:09:01.445Z,100736.22
2023-02-25T06:11:31.671Z,100736.22
2023-02-25T06:14:03.600Z,100743.09
2023-02-25T06:16:32.773Z,100745.59
2023-02-25T06:19:02.636Z,100755.03
2023-02-25T06:21:31.411Z,100750.59
2023-02-25T06:24:01.162Z,100769.47
2023-02-25T06:26:29.886Z,100768.50
2023-02-25T06:28:59.006Z,100769.28
2023-02-25T06:31:28.680Z,100777.88
2023-02-25T06:33:56.890Z,100782.13
2023-02-25T06:36:25.578Z,100777.75
2023-02-25T06:38:54.073Z,100775.91
2023-02-25T06:41:24.133Z,100800.94
2023-02-25T06:43:53.023Z,100796.50
2023-02-25T06:46:24.016Z,100800.78
2023-02-25T06:48:54.705Z,100804.19
2023-02-25T06:51:23.304Z,100809.38
2023-02-25T06:53:52.975Z,100818.03
2023-02-25T06:56:22.261Z,100822.31
2023-02-25T06:58:52.714Z,100824.78
2023-02-25T07:01:21.337Z,100822.97
2023-02-25T07:03:49.768Z,100829.03
2023-02-25T07:06:20.327Z,100823.78
2023-02-25T07:08:48.952Z,100822.94
2023-02-25T07:11:31.715Z,100835.84
2023-02-25T07:14:00.025Z,100834.03
2023-02-25T07:16:29.990Z,100835.78
2023-02-25T07:18:59.920Z,100846.16
2023-02-25T07:21:30.982Z,100849.59
2023-02-25T07:23:59.592Z,100859.09
2023-02-25T07:26:29.324Z,100854.78
2023-02-25T07:28:58.165Z,100862.75
2023-02-25T07:31:28.616Z,100875.78
2023-02-25T07:34:00.140Z,100876.72
2023-02-25T07:36:30.773Z,100880.16
2023-02-25T07:38:59.249Z,100890.38
2023-02-25T07:41:28.735Z,100886.81
2023-02-25T07:43:57.414Z,100888.56
2023-02-25T07:46:26.263Z,100893.75
2023-02-25T07:48:54.741Z,100904.13
2023-02-25T07:51:25.965Z,100904.97
2023-02-25T07:53:58.969Z,100908.38
2023-02-25T07:56:30.347Z,100904.16
2023-02-25T07:58:58.639Z,100914.75
2023-02-25T08:01:30.032Z,100914.19
2023-02-25T08:04:04.607Z,100910.19
2023-02-25T08:06:37.619Z,100917.44
2023-02-25T08:09:08.210Z,100915.16
2023-02-25T08:11:36.533Z,100930.72
2023-02-25T08:14:05.661Z,100923.69
2023-02-25T08:16:34.792Z,100935.59
2023-02-25T08:19:04.643Z,100940.66
2023-02-25T08:21:34.104Z,100952.81
2023-02-25T08:24:02.437Z,100945.16
2023-02-25T08:26:32.050Z,100947.91
2023-02-25T08:29:00.643Z,100942.84
2023-02-25T08:31:29.617Z,100958.56
2023-02-25T08:33:59.580Z,100955.28
2023-02-25T08:36:31.206Z,100955.41
2023-02-25T08:39:00.668Z,100958.84
2023-02-25T08:41:31.420Z,100965.84
2023-02-25T08:44:02.152Z,100975.38
2023-02-25T08:46:33.241Z,100979.81
2023-02-25T08:49:02.253Z,100976.59
2023-02-25T08:51:34.966Z,100995.34
2023-02-25T08:54:05.518Z,101018.31
2023-02-25T08:56:36.305Z,101012.44
2023-02-25T08:59:06.339Z,101005.75
2023-02-25T09:01:45.571Z,101016.25
2023-02-25T09:04:15.805Z,101021.63
2023-02-25T09:06:47.304Z,101029.59
2023-02-25T09:09:16.818Z,101033.19
2023-02-25T09:11:48.844Z,101044.38
2023-02-25T09:14:17.855Z,101046.75
2023-02-25T09:16:46.427Z,101053.50
2023-02-25T09:19:17.384Z,101057.66
2023-02-25T09:21:48.200Z,101053.31
2023-02-25T09:24:17.587Z,101057.72
2023-02-25T09:26:47.617Z,101066.50
2023-02-25T09:29:16.158Z,101068.41
2023-02-25T09:31:44.667Z,101084.91
2023-02-25T09:34:14.474Z,101078.69
2023-02-25T09:36:43.596Z,101087.16
2023-02-25T09:39:11.974Z,101092.19
2023-02-25T09:41:54.552Z,101097.25
2023-02-25T09:44:30.975Z,101101.50
2023-02-25T09:47:05.482Z,101104.00
2023-02-25T09:49:38.348Z,101107.38
2023-02-25T09:52:18.635Z,101103.81
2023-02-25T09:54:49.126Z,101098.41
2023-02-25T09:57:22.640Z,101111.28
2023-02-25T09:59:54.518Z,101115.59
2023-02-25T10:02:33.233Z,101120.78
2023-02-25T10:05:18.220Z,101125.91
2023-02-25T10:08:08.779Z,101136.25
2023-02-25T10:10:50.995Z,101136.31
2023-02-25T10:13:33.488Z,101141.56
2023-02-25T10:16:18.418Z,101145.09
2023-02-25T10:19:01.613Z,101157.28
2023-02-25T10:21:46.838Z,101157.28
2023-02-25T10:24:28.376Z,101152.84
2023-02-25T10:27:04.153Z,101162.28
2023-02-25T10:29:40.093Z,101170.06
2023-02-25T10:32:21.377Z,101173.53
2023-02-25T10:34:52.226Z,101151.16
2023-02-25T10:37:29.998Z,101159.88
2023-02-25T10:40:04.317Z,101176.41
2023-02-25T10:42:33.214Z,101190.13
2023-02-25T10:45:09.978Z,101190.91
2023-02-25T10:47:42.962Z,101199.63
2023-02-25T10:50:25.825Z,101202.31
2023-02-25T10:53:03.008Z,101202.59
2023-02-25T10:55:51.491Z,101208.97
2023-02-25T10:58:29.277Z,101213.63
2023-02-25T11:01:02.651Z,101208.84
2023-02-25T11:03:34.581Z,101214.25
2023-02-25T11:06:20.679Z,101208.16
2023-02-25T11:08:50.547Z,101209.84
2023-02-25T11:11:23.214Z,101221.22
2023-02-25T11:14:05.333Z,101237.66
2023-02-25T11:16:38.145Z,101232.09
2023-02-25T11:19:16.142Z,101232.81
2023-02-25T11:21:45.644Z,101237.22
2023-02-25T11:24:17.486Z,101236.47
2023-02-25T11:26:50.111Z,101242.53
2023-02-25T11:29:25.120Z,101246.00
2023-02-25T11:32:00.790Z,101250.47
2023-02-25T11:34:31.809Z,101242.81
2023-02-25T11:37:25.175Z,101251.56
2023-02-25T11:39:55.328Z,101241.34
2023-02-25T11:42:26.426Z,101244.94
2023-02-25T11:45:01.468Z,101244.13
2023-02-25T11:47:34.245Z,101249.28
2023-02-25T11:50:23.935Z,101247.47
2023-02-25T11:53:03.043Z,101258.72
2023-02-25T11:55:51.107Z,101247.47
2023-02-25T11:58:31.618Z,101256.13
2023-02-25T12:01:05.201Z,101261.31
2023-02-25T12:04:07.464Z,101253.66
2023-02-25T12:07:19.293Z,101260.59
2023-02-25T12:10:25.303Z,101254.47
2023-02-25T12:13:41.560Z,101263.16
2023-02-25T12:16:58.731Z,101260.72
2023-02-25T12:20:06.899Z,101260.88
2023-02-25T12:23:23.628Z,101269.81
2023-02-25T12:26:04.054Z,101274.38
2023-02-25T12:29:18.482Z,101279.66
2023-02-25T12:32:04.838Z,101283.38
2023-02-25T12:35:07.878Z,101284.47
2023-02-25T12:38:00.827Z,101272.47
2023-02-25T12:40:59.519Z,101289.19
2023-02-25T12:43:40.201Z,101297.09
2023-02-25T12:46:32.095Z,101291.78
2023-02-25T12:49:24.655Z,101285.78
2023-02-25T12:52:35.629Z,101287.63
2023-02-25T12:55:25.775Z,101301.63
2023-02-25T12:58:27.660Z,101299.06
2023-02-25T13:01:15.813Z,101298.28
2023-02-25T13:04:05.743Z,101294.13
2023-02-25T13:07:00.422Z,101306.91
2023-02-25T13:09:56.473Z,101300.81
2023-02-25T13:12:54.215Z,101312.88
2023-02-25T13:15:29.788Z,101326.16
2023-02-25T13:18:23.734Z,101314.88
2023-02-25T13:21:15.655Z,101325.81
2023-02-25T13:24:19.172Z,101305.97
2023-02-25T13:27:22.230Z,101310.66
2023-02-25T13:30:11.303Z,101309.25
2023-02-25T13:32:49.493Z,101319.13
2023-02-25T13:35:33.211Z,101319.25
2023-02-25T13:38:19.904Z,101316.81
2023-02-25T13:40:59.657Z,101316.00
2023-02-25T13:44:21.120Z,101330.03
2023-02-25T13:47:38.270Z,101328.34
2023-02-25T13:50:39.227Z,101329.22
2023-02-25T13:53:42.556Z,101329.28
2023-02-25T13:56:53.467Z,101334.66
2023-02-25T14:00:01.536Z,101348.34
2023-02-25T14:03:24.140Z,101367.34
2023-02-25T14:06:04.305Z,101367.16
2023-02-25T14:08:53.720Z,101367.13
2023-02-25T14:12:00.468Z,101364.63
2023-02-25T14:15:21.611Z,101380.72
2023-02-25T14:18:23.364Z,101387.31
2023-02-25T14:21:09.057Z,101398.06
2023-02-25T14:23:49.427Z,101386.47
2023-02-25T14:26:30.668Z,101395.19
2023-02-25T14:29:16.071Z,101395.00
2023-02-25T14:32:17.791Z,101394.63
2023-02-25T14:35:11.531Z,101397.88
2023-02-25T14:37:52.752Z,101413.38
2023-02-25T14:40:30.983Z,101410.44
2023-02-25T14:43:21.991Z,101424.00
2023-02-25T14:45:55.358Z,101410.97
2023-02-25T14:48:31.628Z,101415.22
2023-02-25T14:51:25.425Z,101421.81
2023-02-25T14:54:32.184Z,101423.91
2023-02-25T14:57:24.180Z,101431.38
2023-02-25T15:00:23.457Z,101430.31
2023-02-25T15:03:22.281Z,101440.59
2023-02-25T15:06:14.936Z,101444.81
2023-02-25T15:09:40.014Z,101445.81
2023-02-25T15:12:33.824Z,101442.59
2023-02-25T15:15:35.274Z,101447.09
2023-02-25T15:18:39.697Z,101455.72
2023-02-25T15:21:38.295Z,101452.38
2023-02-25T15:24:12.722Z,101462.84
2023-02-25T15:26:45.471Z,101456.50
2023-02-25T15:29:57.562Z,101460.44
2023-02-25T15:32:30.080Z,101467.13
2023-02-25T15:35:01.557Z,101464.38
2023-02-25T15:37:37.202Z,101466.38
2023-02-25T15:40:51.983Z,101460.16
2023-02-25T15:43:44.823Z,101466.66
2023-02-25T15:46:40.148Z,101466.97
2023-02-25T15:49:22.726Z,101469.97
2023-02-25T15:51:54.049Z,101471.91
2023-02-25T15:54:52.518Z,101473.53
2023-02-25T15:57:37.953Z,101481.97
2023-02-25T16:00:49.950Z,101487.75
2023-02-25T16:03:43.842Z,101485.63
2023-02-25T16:06:17.604Z,101498.16
2023-02-25T16:08:54.110Z,101494.19
2023-02-25T16:11:36.389Z,101498.09
2023-02-25T16:14:08.462Z,101496.78
2023-02-25T16:16:41.645Z,101508.38
2023-02-25T16:19:17.631Z,101506.13
2023-02-25T16:21:49.987Z,101497.00
2023-02-25T16:24:20.240Z,101500.00
2023-02-25T16:26:59.464Z,101508.22
2023-02-25T16:29:44.387Z,101510.38
2023-02-25T16:32:27.314Z,101511.78
2023-02-25T16:35:02.619Z,101513.19
2023-02-25T16:37:43.706Z,101518.94
2023-02-25T16:40:20.204Z,101529.94
2023-02-25T16:42:50.116Z,101537.44
2023-02-25T16:45:30.351Z,101532.75
2023-02-25T16:48:03.733Z,101543.06
2023-02-25T16:50:33.938Z,101542.97
2023-02-25T16:53:04.575Z,101545.50
2023-02-25T16:55:41.552Z,101552.25
2023-02-25T16:58:24.354Z,101545.06
2023-02-25T17:00:55.696Z,101550.94
2023-02-25T17:03:27.460Z,101561.22
2023-02-25T17:06:06.629Z,101556.84
2023-02-25T17:08:36.581Z,101559.44
2023-02-25T17:11:06.941Z,101564.94
2023-02-25T17:13:40.383Z,101567.72
2023-02-25T17:16:21.236Z,101572.94
2023-02-25T17:18:54.334Z,101571.13
2023-02-25T17:21:29.324Z,101569.22
2023-02-25T17:23:59.059Z,101570.88
2023-02-25T17:26:27.881Z,101573.44
2023-02-25T17:29:00.384Z,101570.75
2023-02-25T17:31:31.215Z,101578.31
2023-02-25T17:34:03.450Z,101578.09
2023-02-25T17:36:36.146Z,101583.09
2023-02-25T17:39:08.246Z,101592.44
2023-02-25T17:41:37.612Z,101595.81
2023-02-25T17:44:07.642Z,101596.63
2023-02-25T17:46:39.389Z,101603.59
2023-02-25T17:49:22.427Z,101601.13
2023-02-25T17:51:56.735Z,101602.16
2023-02-25T17:54:27.772Z,101610.97
2023-02-25T17:56:58.607Z,101608.38
2023-02-25T17:59:38.224Z,101600.50
2023-02-25T18:02:35.733Z,101613.09
2023-02-25T18:05:27.256Z,101616.00
2023-02-25T18:08:21.423Z,101626.88
2023-02-25T18:10:56.310Z,101621.31
2023-02-25T18:13:35.223Z,101631.25
2023-02-25T18:16:38.068Z,101633.53
2023-02-25T18:19:41.467Z,101633.19
2023-02-25T18:22:28.659Z,101631.03
2023-02-25T18:24:59.369Z,101627.31
2023-02-25T18:27:30.642Z,101634.97
2023-02-25T18:30:09.543Z,101639.84
2023-02-25T18:32:40.242Z,101637.03
2023-02-25T18:35:09.996Z,101643.69
2023-02-25T18:37:39.249Z,101639.34
2023-02-25T18:40:11.938Z,101643.84
2023-02-25T18:42:40.182Z,101650.00
2023-02-25T18:45:16.367Z,101652.59
2023-02-25T18:47:46.239Z,101659.41
2023-02-25T18:50:15.517Z,101666.50
2023-02-25T18:52:44.601Z,101665.00
2023-02-25T18:55:22.208Z,101656.59
2023-02-25T18:57:50.953Z,101665.38
2023-02-25T19:00:23.225Z,101672.50
2023-02-25T19:02:55.658Z,101670.09
2023-02-25T19:05:25.939Z,101683.06
2023-02-25T19:07:54.794Z,101677.66
2023-02-25T19:10:26.319Z,101685.84
2023-02-25T19:13:01.820Z,101690.31
2023-02-25T19:15:30.338Z,101688.91
2023-02-25T19:18:00.203Z,101683.16
2023-02-25T19:20:28.566Z,101688.66
2023-02-25T19:22:56.786Z,101684.88
2023-02-25T19:25:28.204Z,101679.63
2023-02-25T19:27:58.160Z,101693.41
2023-02-25T19:30:32.117Z,101694.28
2023-02-25T19:33:04.879Z,101691.03
2023-02-25T19:35:35.864Z,101696.19
2023-02-25T19:38:05.157Z,101695.03
2023-02-25T19:40:34.166Z,101699.84
2023-02-25T19:43:02.932Z,101701.78
2023-02-25T19:45:32.075Z,101697.63
2023-02-25T19:48:01.828Z,101708.03
2023-02-25T19:50:34.672Z,101712.59
2023-02-25T19:53:05.692Z,101715.44
2023-02-25T19:55:35.380Z,101709.66
2023-02-25T19:58:03.698Z,101711.84
2023-02-25T20:00:32.281Z,101713.31
2023-02-25T20:03:02.062Z,101719.06
2023-02-25T20:05:30.455Z,101710.09
2023-02-25T20:07:58.646Z,101718.50
2023-02-25T20:10:26.977Z,101720.00
2023-02-25T20:12:55.334Z,101728.34
2023-02-25T20:15:23.675Z,101727.53
2023-02-25T20:17:55.039Z,101728.81
2023-02-25T20:20:24.920Z,101744.81
2023-02-25T20:22:53.282Z,101743.19
2023-02-25T20:25:21.780Z,101746.59
2023-02-25T20:27:50.073Z,101744.81
2023-02-25T20:30:19.642Z,101753.38
2023-02-25T20:32:48.123Z,101756.94
2023-02-25T20:35:21.641Z,101751.03
2023-02-25T20:38:17.414Z,101759.75
2023-02-25T20:40:46.048Z,101753.69
2023-02-25T20:43:16.347Z,101760.47
2023-02-25T20:45:45.290Z,101757.81
2023-02-25T20:48:28.168Z,101766.13
2023-02-25T20:50:57.323Z,101764.16
2023-02-25T20:53:27.476Z,101765.63
2023-02-25T20:55:58.400Z,101772.59
2023-02-25T20:58:26.707Z,101765.13
2023-02-25T21:00:55.102Z,101781.13
2023-02-25T21:03:23.688Z,101779.69
2023-02-25T21:05:52.064Z,101776.28
2023-02-25T21:08:20.725Z,101781.38
2023-02-25T21:10:50.553Z,101790.19
2023-02-25T21:13:18.914Z,101794.13
2023-02-25T21:15:47.340Z,101799.06
2023-02-25T21:18:15.683Z,101807.22
2023-02-25T21:20:43.996Z,101814.16
2023-02-25T21:23:12.258Z,101804.16
2023-02-25T21:25:40.597Z,101809.59
2023-02-25T21:28:10.249Z,101807.16
2023-02-25T21:30:39.806Z,101812.88
2023-02-25T21:33:08.541Z,101811.19
2023-02-25T21:35:37.067Z,101815.88
2023-02-25T21:38:05.528Z,101817.16
2023-02-25T21:40:34.303Z,101822.91
2023-02-25T21:43:02.602Z,101827.75
2023-02-25T21:45:32.782Z,101830.88
2023-02-25T21:48:01.073Z,101831.19
2023-02-25T21:50:29.306Z,101844.44
2023-02-25T21:52:57.734Z,101839.44
2023-02-25T21:55:26.514Z,101836.03
2023-02-25T21:57:54.854Z,101838.78
2023-02-25T22:00:24.280Z,101844.84
2023-02-25T22:02:53.913Z,101853.41
2023-02-25T22:05:22.310Z,101857.44
2023-02-25T22:07:51.050Z,101857.16
2023-02-25T22:10:21.320Z,101852.38
2023-02-25T22:12:50.715Z,101853.66
2023-02-25T22:15:19.274Z,101861.03
2023-02-25T22:17:47.692Z,101850.22
2023-02-25T22:20:18.421Z,101861.91
2023-02-25T22:22:46.800Z,101861.47
2023-02-25T22:25:15.264Z,101863.75
2023-02-25T22:27:43.506Z,101867.06
2023-02-25T22:30:13.659Z,101872.13
2023-02-25T22:32:42.055Z,101870.81
2023-02-25T22:35:11.001Z,101865.34
2023-02-25T22:37:40.677Z,101872.66
2023-02-25T22:40:10.824Z,101877.47
2023-02-25T22:42:39.633Z,101880.50
2023-02-25T22:45:09.341Z,101877.75
2023-02-25T22:47:37.648Z,101885.34
2023-02-25T22:50:07.207Z,101890.31
2023-02-25T22:52:35.451Z,101887.69
2023-02-25T22:55:05.929Z,101891.19
2023-02-25T22:57:34.203Z,101900.66
2023-02-25T23:00:02.771Z,101900.50
2023-02-25T23:02:31.195Z,101914.19
2023-02-25T23:04:59.420Z,101910.09
2023-02-25T23:07:27.745Z,101920.53
2023-02-25T23:09:56.084Z,101921.50
2023-02-25T23:12:25.863Z,101930.19
2023-02-25T23:14:54.172Z,101934.47
2023-02-25T23:17:22.592Z,101934.31
2023-02-25T23:19:50.864Z,101937.34
2023-02-25T23:22:25.195Z,101944.00
2023-02-25T23:24:53.414Z,101943.75
2023-02-25T23:27:21.795Z,101954.97
2023-02-25T23:29:51.967Z,101953.91
2023-02-25T23:32:20.631Z,101964.94
2023-02-25T23:34:49.644Z,101969.13
2023-02-25T23:37:17.960Z,101968.16
2023-02-25T23:39:46.270Z,101969.03
2023-02-25T23:42:14.721Z,101975.88
2023-02-25T23:44:43.221Z,101975.63
2023-02-25T23:47:13.077Z,101975.41
2023-02-25T23:49:41.419Z,101974.44
2023-02-25T23:52:09.973Z,101981.28
2023-02-25T23:54:38.453Z,101982.88
2023-02-25T23:57:06.840Z,101982.72
2023-02-25T23:59:35.435Z,101992.03
